Time;durP1;ratioP1;P1;durP2;ratioP2;P2;SDS_P1;SDS_P2;PMS_P1;PMS_P2;Temp;Humidity;BMP_temperature;BMP_pressure;BME280_temperature;BME280_humidity;BME280_pressure;Samples;Min_cycle;Max_cycle;Signal;HPM_P1;HPM_P2
2021/12/12 00:00:57;;;;;;;10.88;6.78;;;;;;;;;;5059665;28;20131;-88
2021/12/12 00:03:33;;;;;;;13.55;8.98;;;;;;;;;;5042680;28;20029;-87
2021/12/12 00:05:58;;;;;;;13.63;8.27;;;;;;;;;;5042805;28;20036;-88
2021/12/12 00:08:23;;;;;;;12.27;7.53;;;;;;;;;;5059161;28;20028;-87
2021/12/12 00:10:49;;;;;;;12.13;7.70;;;;;;;;;;5043365;28;20037;-87
2021/12/12 00:13:14;;;;;;;11.57;7.20;;;;;;;;;;5059420;28;20020;-86
2021/12/12 00:15:39;;;;;;;11.30;7.47;;;;;;;;;;5060868;28;20040;-88
2021/12/12 00:18:05;;;;;;;12.70;7.35;;;;;;;;;;5060452;28;20036;-87
2021/12/12 00:20:30;;;;;;;11.60;7.30;;;;;;;;;;5077310;28;20063;-87
2021/12/12 00:22:59;;;;;;;11.65;6.60;;;;;;;;;;5043251;28;20028;-87
2021/12/12 00:25:24;;;;;;;10.75;6.97;;;;;;;;;;5076690;28;20029;-87
2021/12/12 00:27:49;;;;;;;9.32;7.07;;;;;;;;;;5043553;28;20518;-87
2021/12/12 00:30:14;;;;;;;12.18;7.35;;;;;;;;;;5043584;28;20044;-88
2021/12/12 00:32:40;;;;;;;10.65;6.60;;;;;;;;;;5077683;28;20029;-88
2021/12/12 00:35:05;;;;;;;10.05;6.72;;;;;;;;;;5059599;28;20626;-88
2021/12/12 00:37:31;;;;;;;10.55;5.97;;;;;;;;;;5077974;28;20062;-87
2021/12/12 00:39:56;;;;;;;8.88;5.75;;;;;;;;;;5058835;28;20064;-87
2021/12/12 00:42:21;;;;;;;9.60;5.90;;;;;;;;;;5077137;28;20469;-87
2021/12/12 00:44:47;;;;;;;9.90;6.00;;;;;;;;;;5059223;28;20043;-86
2021/12/12 00:47:12;;;;;;;8.70;5.60;;;;;;;;;;5058278;28;20032;-87
2021/12/12 00:49:37;;;;;;;7.50;4.80;;;;;;;;;;5077139;28;20380;-87
2021/12/12 00:52:03;;;;;;;9.27;5.32;;;;;;;;;;5058511;28;20459;-87
2021/12/12 00:54:31;;;;;;;11.85;6.63;;;;;;;;;;5075752;28;20083;-88
2021/12/12 00:56:56;;;;;;;9.05;6.00;;;;;;;;;;5076566;28;20048;-87
2021/12/12 00:59:21;;;;;;;8.23;5.38;;;;;;;;;;5078116;28;20043;-88
2021/12/12 01:01:47;;;;;;;9.30;5.25;;;;;;;;;;5059480;28;20111;-88
2021/12/12 01:04:12;;;;;;;8.65;5.32;;;;;;;;;;5060119;28;20385;-88
2021/12/12 01:06:38;;;;;;;7.18;4.68;;;;;;;;;;5059228;28;20043;-88
2021/12/12 01:09:03;;;;;;;7.18;4.70;;;;;;;;;;5080210;28;20400;-87
2021/12/12 01:11:28;;;;;;;7.65;4.40;;;;;;;;;;5076630;28;20086;-88
2021/12/12 01:13:53;;;;;;;7.00;4.40;;;;;;;;;;5058335;28;20036;-87
2021/12/12 01:16:19;;;;;;;5.78;4.00;;;;;;;;;;5058722;28;20078;-88
2021/12/12 01:18:44;;;;;;;6.97;4.60;;;;;;;;;;5076437;28;20532;-87
2021/12/12 01:21:12;;;;;;;6.22;4.45;;;;;;;;;;5041509;28;20132;-87
2021/12/12 01:23:37;;;;;;;8.05;4.70;;;;;;;;;;5043450;28;20033;-87
2021/12/12 01:26:02;;;;;;;7.22;4.53;;;;;;;;;;5042645;28;20143;-87
2021/12/12 01:28:28;;;;;;;5.85;4.40;;;;;;;;;;5041945;28;20493;-88
2021/12/12 01:30:53;;;;;;;8.10;4.18;;;;;;;;;;5076715;28;20536;-87
2021/12/12 01:33:32;;;;;;;7.32;4.28;;;;;;;;;;5077423;28;20050;-88
2021/12/12 01:35:57;;;;;;;6.43;4.40;;;;;;;;;;5058303;28;20050;-86
2021/12/12 01:41:07;;;;;;;6.43;4.03;;;;;;;;;;5076889;28;20025;-87
2021/12/12 01:43:32;;;;;;;7.03;4.32;;;;;;;;;;5043415;28;20479;-87
2021/12/12 01:45:58;;;;;;;8.23;4.75;;;;;;;;;;5058815;28;20039;-87
2021/12/12 01:48:23;;;;;;;6.28;4.28;;;;;;;;;;5077969;28;20036;-87
2021/12/12 01:50:49;;;;;;;6.35;4.50;;;;;;;;;;5059497;28;20056;-88
2021/12/12 01:53:14;;;;;;;5.85;4.10;;;;;;;;;;5044405;28;20028;-88
2021/12/12 01:55:41;;;;;;;6.13;4.43;;;;;;;;;;5060586;28;20048;-88
2021/12/12 01:58:06;;;;;;;6.75;4.50;;;;;;;;;;5043463;28;20036;-87
2021/12/12 02:00:31;;;;;;;7.47;4.70;;;;;;;;;;5081303;28;20040;-88
2021/12/12 02:02:57;;;;;;;7.70;5.22;;;;;;;;;;5063088;28;20051;-87
2021/12/12 02:05:22;;;;;;;5.90;4.28;;;;;;;;;;5061510;28;20480;-88
2021/12/12 02:07:47;;;;;;;7.85;4.60;;;;;;;;;;5080546;28;20041;-86
2021/12/12 02:10:13;;;;;;;6.00;4.05;;;;;;;;;;5045043;28;20473;-88
2021/12/12 02:12:38;;;;;;;6.28;3.92;;;;;;;;;;5062175;28;20559;-87
2021/12/12 02:15:03;;;;;;;6.63;4.13;;;;;;;;;;5078541;28;20059;-88
2021/12/12 02:17:33;;;;;;;6.28;4.28;;;;;;;;;;5079430;28;20032;-88
2021/12/12 02:20:12;;;;;;;6.65;4.18;;;;;;;;;;5061695;28;20040;-87
2021/12/12 02:36:13;;;;;;;7.35;4.70;;;;;;;;;;5079609;28;20368;-88
2021/12/12 02:38:38;;;;;;;6.82;4.13;;;;;;;;;;5079941;28;20496;-89
2021/12/12 02:41:04;;;;;;;7.05;3.88;;;;;;;;;;5062514;28;20473;-88
2021/12/12 02:43:29;;;;;;;6.70;4.10;;;;;;;;;;5061504;28;20036;-88
2021/12/12 02:45:55;;;;;;;5.97;4.03;;;;;;;;;;5044873;28;20119;-88
2021/12/12 02:48:21;;;;;;;5.13;3.60;;;;;;;;;;5080301;28;20048;-88
2021/12/12 02:50:46;;;;;;;4.85;3.45;;;;;;;;;;5080082;28;20025;-88
2021/12/12 02:53:11;;;;;;;5.60;3.15;;;;;;;;;;5062458;28;20496;-88
2021/12/12 02:55:37;;;;;;;5.50;3.45;;;;;;;;;;5080280;28;20549;-89
2021/12/12 02:58:02;;;;;;;5.78;3.65;;;;;;;;;;5063060;28;20094;-88
2021/12/12 03:00:27;;;;;;;4.97;3.50;;;;;;;;;;5080427;28;20032;-88
2021/12/12 03:02:57;;;;;;;5.95;3.50;;;;;;;;;;5061694;28;20410;-88
2021/12/12 03:05:23;;;;;;;5.75;3.50;;;;;;;;;;5045301;28;20032;-88
2021/12/12 03:07:48;;;;;;;6.32;3.90;;;;;;;;;;5044968;28;20024;-88
2021/12/12 03:10:13;;;;;;;5.78;3.72;;;;;;;;;;5078804;28;20033;-88
2021/12/12 03:12:39;;;;;;;4.60;3.20;;;;;;;;;;5062836;28;20062;-88
2021/12/12 03:15:04;;;;;;;4.55;2.60;;;;;;;;;;5046220;28;20043;-89
2021/12/12 03:17:29;;;;;;;5.15;2.58;;;;;;;;;;5079826;28;20023;-88
2021/12/12 03:19:54;;;;;;;4.22;2.30;;;;;;;;;;5061821;28;20077;-88
2021/12/12 03:22:20;;;;;;;4.28;2.80;;;;;;;;;;5045321;28;20032;-88
2021/12/12 03:24:45;;;;;;;3.20;2.50;;;;;;;;;;5062466;28;20097;-85
2021/12/12 03:27:10;;;;;;;3.88;2.45;;;;;;;;;;5060460;28;20024;-88
2021/12/12 03:29:36;;;;;;;3.78;2.65;;;;;;;;;;5078809;28;20027;-87
2021/12/12 03:32:01;;;;;;;3.35;2.42;;;;;;;;;;5059363;28;20088;-87
2021/12/12 03:34:26;;;;;;;3.80;2.53;;;;;;;;;;5077732;28;20558;-87
2021/12/12 03:36:52;;;;;;;4.30;2.72;;;;;;;;;;5059243;28;20024;-88
2021/12/12 03:39:17;;;;;;;4.55;3.05;;;;;;;;;;5059204;28;20029;-87
2021/12/12 03:41:42;;;;;;;4.93;3.65;;;;;;;;;;5059625;28;20032;-87
2021/12/12 03:44:08;;;;;;;4.47;3.08;;;;;;;;;;5043424;28;20032;-87
2021/12/12 03:46:33;;;;;;;5.28;3.53;;;;;;;;;;5077811;28;20035;-87
2021/12/12 03:48:58;;;;;;;5.40;3.63;;;;;;;;;;5043820;28;20013;-87
2021/12/12 03:51:24;;;;;;;10.52;5.35;;;;;;;;;;5078135;28;20032;-88
2021/12/12 03:53:49;;;;;;;6.38;4.32;;;;;;;;;;5044086;28;20033;-88
2021/12/12 03:56:14;;;;;;;6.63;4.18;;;;;;;;;;5061704;28;20032;-88
2021/12/12 03:58:40;;;;;;;5.03;3.72;;;;;;;;;;5079576;28;20032;-88
2021/12/12 04:01:05;;;;;;;6.35;4.38;;;;;;;;;;5079920;28;20086;-88
2021/12/12 04:03:30;;;;;;;5.15;3.58;;;;;;;;;;5061638;28;20378;-88
2021/12/12 04:05:58;;;;;;;4.78;3.10;;;;;;;;;;5060570;28;20037;-88
2021/12/12 04:08:23;;;;;;;5.13;3.30;;;;;;;;;;5044231;28;20064;-88
2021/12/12 04:10:48;;;;;;;5.93;3.30;;;;;;;;;;5060119;28;20029;-88
2021/12/12 04:13:13;;;;;;;4.53;2.47;;;;;;;;;;5078912;28;20099;-87
2021/12/12 04:15:39;;;;;;;3.83;2.67;;;;;;;;;;5059337;28;20033;-87
2021/12/12 04:18:04;;;;;;;6.65;3.45;;;;;;;;;;5042753;28;20024;-88
2021/12/12 04:20:29;;;;;;;4.38;2.95;;;;;;;;;;5076474;28;20439;-87
2021/12/12 04:22:55;;;;;;;3.60;2.30;;;;;;;;;;5058801;28;20039;-87
2021/12/12 04:25:20;;;;;;;4.78;2.95;;;;;;;;;;5059032;28;20035;-87
2021/12/12 04:27:46;;;;;;;5.47;3.33;;;;;;;;;;5042804;28;20079;-87
2021/12/12 04:30:11;;;;;;;4.43;3.17;;;;;;;;;;5042513;28;20031;-87
2021/12/12 04:32:36;;;;;;;4.93;3.58;;;;;;;;;;5077072;28;20516;-87
2021/12/12 04:35:02;;;;;;;6.20;3.70;;;;;;;;;;5076424;28;20062;-88
2021/12/12 04:37:27;;;;;;;7.00;4.40;;;;;;;;;;5059726;28;20093;-87
2021/12/12 04:39:53;;;;;;;5.72;4.30;;;;;;;;;;5042792;28;20131;-88
2021/12/12 04:42:18;;;;;;;6.40;4.15;;;;;;;;;;5058966;28;20028;-87
2021/12/12 04:44:44;;;;;;;6.82;3.70;;;;;;;;;;5042376;28;20043;-89
2021/12/12 04:49:56;;;;;;;5.60;3.80;;;;;;;;;;5076937;28;20540;-89
2021/12/12 04:52:21;;;;;;;5.45;3.83;;;;;;;;;;5076708;28;20035;-89
2021/12/12 04:54:47;;;;;;;5.10;3.38;;;;;;;;;;5041812;28;20032;-89
2021/12/12 04:57:12;;;;;;;4.90;3.13;;;;;;;;;;5076547;28;20048;-89
2021/12/12 04:59:37;;;;;;;6.72;4.07;;;;;;;;;;5042328;28;20130;-89
2021/12/12 05:02:03;;;;;;;4.60;3.65;;;;;;;;;;5041817;28;20107;-90
2021/12/12 05:04:28;;;;;;;5.50;3.85;;;;;;;;;;5058466;28;20123;-89
2021/12/12 05:06:53;;;;;;;7.35;4.32;;;;;;;;;;5058555;28;20089;-89
2021/12/12 05:09:19;;;;;;;7.75;4.47;;;;;;;;;;5058075;28;20109;-89
2021/12/12 05:11:44;;;;;;;7.40;4.85;;;;;;;;;;5041836;28;20056;-89
2021/12/12 05:14:09;;;;;;;7.85;5.10;;;;;;;;;;5076994;28;20032;-89
2021/12/12 05:16:35;;;;;;;7.78;5.22;;;;;;;;;;5058365;28;20032;-89
2021/12/12 05:19:04;;;;;;;6.95;4.38;;;;;;;;;;5042171;28;20040;-89
2021/12/12 05:21:30;;;;;;;6.28;4.10;;;;;;;;;;5075836;28;20044;-89
2021/12/12 05:23:55;;;;;;;6.10;4.13;;;;;;;;;;5076117;28;20408;-89
2021/12/12 05:26:20;;;;;;;6.13;4.30;;;;;;;;;;5075541;28;20519;-89
2021/12/12 05:28:48;;;;;;;7.57;4.82;;;;;;;;;;5058336;28;20044;-88
2021/12/12 05:31:13;;;;;;;8.13;4.90;;;;;;;;;;5077048;28;20036;-89
2021/12/12 05:33:38;;;;;;;6.90;4.35;;;;;;;;;;5079888;28;20028;-88
2021/12/12 05:36:03;;;;;;;9.02;5.03;;;;;;;;;;5063388;28;20074;-87
2021/12/12 05:38:29;;;;;;;7.10;4.75;;;;;;;;;;5063019;28;20067;-87
2021/12/12 05:40:54;;;;;;;8.23;4.65;;;;;;;;;;5063447;28;20036;-88
2021/12/12 05:43:19;;;;;;;6.90;4.57;;;;;;;;;;5064094;28;20032;-88
2021/12/12 05:45:45;;;;;;;9.55;5.15;;;;;;;;;;5063047;28;20033;-87
2021/12/12 05:48:10;;;;;;;8.27;4.97;;;;;;;;;;5045355;28;20070;-87
2021/12/12 05:50:35;;;;;;;9.25;5.88;;;;;;;;;;5081627;28;20124;-88
2021/12/12 05:53:01;;;;;;;9.00;5.72;;;;;;;;;;5063637;28;20094;-87
2021/12/12 05:55:26;;;;;;;9.55;6.22;;;;;;;;;;5062184;28;20028;-87
2021/12/12 05:57:55;;;;;;;10.15;6.72;;;;;;;;;;5046617;28;20043;-87
2021/12/12 06:00:20;;;;;;;10.95;6.40;;;;;;;;;;5062359;28;20037;-89
2021/12/12 06:02:45;;;;;;;10.70;6.32;;;;;;;;;;5045143;28;20083;-88
2021/12/12 06:05:11;;;;;;;8.95;6.03;;;;;;;;;;5061636;28;20032;-90
2021/12/12 06:07:36;;;;;;;10.88;6.28;;;;;;;;;;5062140;28;20089;-89
2021/12/12 06:10:02;;;;;;;8.50;5.88;;;;;;;;;;5062198;28;20083;-89
2021/12/12 06:12:27;;;;;;;9.18;5.97;;;;;;;;;;5062368;28;20047;-88
2021/12/12 06:14:52;;;;;;;11.25;6.82;;;;;;;;;;5062067;28;20089;-88
2021/12/12 06:17:17;;;;;;;8.75;6.25;;;;;;;;;;5062282;28;20042;-88
2021/12/12 06:19:43;;;;;;;9.65;6.82;;;;;;;;;;5061190;28;20142;-89
2021/12/12 06:22:08;;;;;;;10.40;6.40;;;;;;;;;;5079137;28;20028;-87
2021/12/12 06:24:34;;;;;;;10.98;6.32;;;;;;;;;;5061729;28;20023;-88
2021/12/12 06:26:59;;;;;;;7.18;4.90;;;;;;;;;;5079929;28;20066;-87
2021/12/12 06:29:24;;;;;;;8.20;5.28;;;;;;;;;;5080626;28;20028;-87
2021/12/12 06:31:50;;;;;;;10.88;6.18;;;;;;;;;;5062788;28;20036;-87
2021/12/12 06:34:15;;;;;;;9.43;6.55;;;;;;;;;;5061396;28;20084;-88
2021/12/12 06:36:41;;;;;;;11.85;6.93;;;;;;;;;;5061434;28;20085;-88
2021/12/12 06:39:06;;;;;;;12.10;7.55;;;;;;;;;;5079633;28;20037;-88
2021/12/12 06:41:31;;;;;;;11.43;7.28;;;;;;;;;;5079616;28;20037;-88
2021/12/12 06:43:57;;;;;;;10.88;7.15;;;;;;;;;;5060569;28;20478;-88
2021/12/12 06:46:22;;;;;;;13.60;7.53;;;;;;;;;;5078460;28;20039;-87
2021/12/12 06:48:47;;;;;;;12.45;7.03;;;;;;;;;;5061875;28;20063;-88
2021/12/12 06:51:13;;;;;;;10.43;6.95;;;;;;;;;;5044153;28;20065;-87
2021/12/12 06:53:38;;;;;;;11.70;7.13;;;;;;;;;;5061335;28;20415;-88
2021/12/12 06:56:04;;;;;;;12.20;7.65;;;;;;;;;;5061334;28;20064;-88
2021/12/12 06:58:29;;;;;;;13.32;8.40;;;;;;;;;;5044359;28;20524;-88
2021/12/12 07:00:55;;;;;;;12.75;7.35;;;;;;;;;;5071261;28;20068;-88
2021/12/12 07:03:20;;;;;;;10.20;6.70;;;;;;;;;;5067771;28;20030;-87
2021/12/12 07:05:45;;;;;;;11.10;7.00;;;;;;;;;;5078420;28;20047;-88
2021/12/12 07:08:11;;;;;;;9.77;6.95;;;;;;;;;;5078452;28;20043;-87
2021/12/12 07:10:36;;;;;;;11.60;7.43;;;;;;;;;;5041128;28;20068;-88
2021/12/12 07:13:02;;;;;;;11.18;7.60;;;;;;;;;;5057903;28;20049;-88
2021/12/12 07:15:27;;;;;;;11.23;7.40;;;;;;;;;;5040198;28;20090;-89
2021/12/12 07:17:52;;;;;;;12.93;8.60;;;;;;;;;;5039321;28;20120;-88
2021/12/12 07:20:18;;;;;;;16.05;8.63;;;;;;;;;;5058092;28;20061;-88
2021/12/12 07:22:43;;;;;;;14.93;9.23;;;;;;;;;;5042156;28;20568;-89
2021/12/12 07:25:08;;;;;;;16.40;10.00;;;;;;;;;;5039634;28;20425;-88
2021/12/12 07:27:34;;;;;;;17.63;11.45;;;;;;;;;;5039704;28;20040;-88
2021/12/12 07:29:59;;;;;;;18.55;11.57;;;;;;;;;;5057108;28;20086;-88
2021/12/12 07:32:24;;;;;;;15.88;10.20;;;;;;;;;;5058230;28;20036;-88
2021/12/12 07:34:50;;;;;;;16.20;9.88;;;;;;;;;;5039755;28;20037;-89
2021/12/12 07:37:15;;;;;;;15.00;9.88;;;;;;;;;;5039769;28;20052;-88
2021/12/12 07:39:40;;;;;;;15.70;9.80;;;;;;;;;;5023887;28;20036;-88
2021/12/12 07:42:06;;;;;;;13.70;8.82;;;;;;;;;;5057933;28;20087;-88
2021/12/12 07:44:32;;;;;;;15.15;9.38;;;;;;;;;;5057892;28;20477;-89
2021/12/12 07:46:58;;;;;;;15.80;10.10;;;;;;;;;;5057541;28;20032;-89
2021/12/12 07:49:23;;;;;;;15.00;9.35;;;;;;;;;;5040113;28;20515;-89
2021/12/12 07:51:49;;;;;;;14.98;9.38;;;;;;;;;;5039371;28;20033;-88
2021/12/12 07:54:14;;;;;;;15.43;9.75;;;;;;;;;;5023183;28;20423;-88
2021/12/12 07:56:39;;;;;;;15.98;10.48;;;;;;;;;;5057373;28;20407;-88
2021/12/12 07:59:05;;;;;;;16.13;10.02;;;;;;;;;;5056688;28;20540;-88
2021/12/12 08:01:30;;;;;;;16.77;10.02;;;;;;;;;;5040144;28;20500;-88
2021/12/12 08:03:56;;;;;;;14.07;8.95;;;;;;;;;;5038524;28;20037;-89
2021/12/12 08:06:21;;;;;;;14.45;9.40;;;;;;;;;;5056383;28;20041;-89
2021/12/12 08:08:47;;;;;;;15.95;9.02;;;;;;;;;;5057742;28;20037;-87
2021/12/12 08:11:12;;;;;;;15.93;9.32;;;;;;;;;;5023390;28;20448;-88
2021/12/12 08:13:37;;;;;;;12.65;7.80;;;;;;;;;;5038537;28;20128;-88
2021/12/12 08:16:03;;;;;;;12.35;7.60;;;;;;;;;;5039356;28;20061;-88
2021/12/12 08:18:28;;;;;;;11.70;7.72;;;;;;;;;;5056673;28;20061;-89
2021/12/12 08:20:53;;;;;;;12.40;7.90;;;;;;;;;;5039300;28;20037;-88
2021/12/12 08:23:19;;;;;;;13.27;8.35;;;;;;;;;;5056217;28;20025;-88
2021/12/12 08:25:44;;;;;;;12.07;8.00;;;;;;;;;;5056433;28;20033;-88
2021/12/12 08:28:09;;;;;;;11.98;7.90;;;;;;;;;;5058092;28;20041;-87
2021/12/12 08:30:35;;;;;;;11.55;7.93;;;;;;;;;;5076482;28;20025;-87
2021/12/12 08:33:00;;;;;;;13.32;7.75;;;;;;;;;;5042232;28;20040;-88
2021/12/12 08:35:25;;;;;;;12.40;8.10;;;;;;;;;;5042478;28;20032;-88
2021/12/12 08:37:50;;;;;;;13.18;8.02;;;;;;;;;;5076950;28;20372;-88
2021/12/12 08:40:18;;;;;;;13.10;7.80;;;;;;;;;;5059674;28;20028;-88
2021/12/12 08:42:43;;;;;;;12.48;8.27;;;;;;;;;;5059786;28;20036;-87
2021/12/12 08:45:09;;;;;;;12.40;8.23;;;;;;;;;;5077347;28;20101;-87
2021/12/12 08:47:34;;;;;;;13.10;8.73;;;;;;;;;;5058530;28;20040;-87
2021/12/12 08:49:59;;;;;;;11.82;7.80;;;;;;;;;;5045209;28;20123;-89
2021/12/12 08:52:27;;;;;;;14.10;8.40;;;;;;;;;;5075126;28;20059;-89
2021/12/12 08:54:53;;;;;;;12.90;7.75;;;;;;;;;;5056263;28;20036;-88
2021/12/12 08:57:32;;;;;;;12.82;7.55;;;;;;;;;;5057271;28;20101;-88
2021/12/12 08:59:57;;;;;;;11.68;7.78;;;;;;;;;;5057284;28;20391;-88
2021/12/12 09:02:23;;;;;;;13.20;7.95;;;;;;;;;;5057920;28;20099;-88
2021/12/12 09:04:48;;;;;;;14.63;8.40;;;;;;;;;;5040479;28;20037;-87
2021/12/12 09:07:13;;;;;;;11.82;7.93;;;;;;;;;;5056876;28;20100;-88
2021/12/12 09:09:39;;;;;;;12.15;7.88;;;;;;;;;;5057479;28;20064;-88
2021/12/12 09:12:04;;;;;;;11.95;7.95;;;;;;;;;;5074507;28;20032;-87
2021/12/12 09:14:30;;;;;;;13.50;8.35;;;;;;;;;;5057404;28;20074;-88
2021/12/12 09:16:55;;;;;;;11.95;7.47;;;;;;;;;;5057418;28;20541;-88
2021/12/12 09:19:24;;;;;;;8.00;5.75;;;;;;;;;;5057515;28;20028;-88
2021/12/12 09:21:51;;;;;;;10.10;6.00;;;;;;;;;;5075124;28;20036;-87
2021/12/12 09:24:17;;;;;;;8.52;6.32;;;;;;;;;;5040835;28;20052;-88
2021/12/12 09:26:43;;;;;;;8.52;5.82;;;;;;;;;;5074719;28;20476;-87
2021/12/12 09:29:10;;;;;;;9.90;6.90;;;;;;;;;;5075359;28;20056;-88
2021/12/12 09:31:38;;;;;;;9.65;6.75;;;;;;;;;;5074957;28;20108;-88
2021/12/12 09:34:03;;;;;;;9.05;5.90;;;;;;;;;;5057419;28;20115;-88
2021/12/12 09:36:29;;;;;;;8.23;5.38;;;;;;;;;;5056944;28;20121;-88
2021/12/12 09:38:54;;;;;;;8.98;6.30;;;;;;;;;;5056986;28;20070;-88
2021/12/12 09:41:20;;;;;;;10.77;6.95;;;;;;;;;;5057803;28;20055;-88
2021/12/12 09:43:45;;;;;;;10.60;6.70;;;;;;;;;;5075090;28;20031;-90
2021/12/12 09:46:18;;;;;;;11.52;7.55;;;;;;;;;;5057440;28;20040;-89
2021/12/12 09:51:27;;;;;;;13.23;8.05;;;;;;;;;;5076041;28;20037;-89
2021/12/12 09:53:53;;;;;;;11.70;7.55;;;;;;;;;;5058495;28;20035;-88
2021/12/12 09:56:18;;;;;;;9.82;6.15;;;;;;;;;;5058027;28;20068;-88
2021/12/12 09:58:43;;;;;;;7.97;5.47;;;;;;;;;;5057661;28;20115;-88
2021/12/12 10:01:09;;;;;;;9.18;5.82;;;;;;;;;;5056473;28;20055;-88
2021/12/12 10:03:34;;;;;;;8.13;5.57;;;;;;;;;;5078919;28;20388;-88
2021/12/12 10:06:00;;;;;;;9.70;5.57;;;;;;;;;;5043977;28;20044;-88
2021/12/12 10:08:25;;;;;;;9.05;5.80;;;;;;;;;;5079935;28;20060;-88
2021/12/12 10:10:50;;;;;;;9.57;6.18;;;;;;;;;;5059410;28;20037;-87
2021/12/12 10:13:16;;;;;;;7.95;5.32;;;;;;;;;;5057468;28;20223;-87
2021/12/12 10:15:41;;;;;;;9.65;6.07;;;;;;;;;;5078027;28;20035;-87
2021/12/12 10:18:06;;;;;;;8.00;5.80;;;;;;;;;;5041747;28;20040;-87
2021/12/12 10:20:32;;;;;;;9.18;5.93;;;;;;;;;;5045712;28;20044;-88
2021/12/12 10:22:57;;;;;;;9.50;6.18;;;;;;;;;;5065073;28;20029;-87
2021/12/12 10:25:23;;;;;;;9.93;6.78;;;;;;;;;;5064677;28;20476;-87
2021/12/12 10:27:48;;;;;;;10.43;7.07;;;;;;;;;;5065762;28;20082;-89
2021/12/12 10:30:14;;;;;;;9.75;6.03;;;;;;;;;;5083875;28;20609;-88
2021/12/12 10:32:39;;;;;;;9.18;6.00;;;;;;;;;;5081348;28;20031;-89
2021/12/12 10:35:05;;;;;;;8.30;5.70;;;;;;;;;;5065867;28;20100;-88
2021/12/12 10:37:30;;;;;;;9.00;6.00;;;;;;;;;;5046682;28;20063;-88
2021/12/12 10:39:55;;;;;;;9.52;6.10;;;;;;;;;;5060497;28;20123;-88
2021/12/12 10:42:21;;;;;;;10.73;6.20;;;;;;;;;;5081400;28;20024;-88
2021/12/12 10:44:47;;;;;;;10.63;5.97;;;;;;;;;;5062516;28;20047;-88
2021/12/12 10:47:12;;;;;;;11.80;6.28;;;;;;;;;;5047902;28;20028;-88
2021/12/12 10:49:38;;;;;;;10.25;5.90;;;;;;;;;;5063279;28;20032;-88
2021/12/12 10:52:03;;;;;;;10.07;6.05;;;;;;;;;;5063279;28;20040;-89
2021/12/12 10:54:28;;;;;;;7.50;5.22;;;;;;;;;;5063557;28;20017;-88
2021/12/12 10:56:54;;;;;;;6.85;4.72;;;;;;;;;;5046286;28;20032;-88
2021/12/12 10:59:19;;;;;;;7.88;5.57;;;;;;;;;;5062156;28;20028;-88
2021/12/12 11:01:44;;;;;;;8.82;5.60;;;;;;;;;;5063694;28;20055;-88
2021/12/12 11:04:10;;;;;;;8.15;5.43;;;;;;;;;;5064342;28;20032;-88
2021/12/12 11:06:35;;;;;;;11.35;6.32;;;;;;;;;;5063335;28;20171;-88
2021/12/12 11:09:00;;;;;;;13.10;7.20;;;;;;;;;;5059682;28;20527;-88
2021/12/12 11:11:26;;;;;;;12.70;7.53;;;;;;;;;;5078868;28;20052;-87
2021/12/12 11:13:51;;;;;;;10.23;6.78;;;;;;;;;;5060107;28;20033;-87
2021/12/12 11:16:16;;;;;;;10.40;7.18;;;;;;;;;;5056797;28;20043;-88
2021/12/12 11:18:42;;;;;;;9.77;6.78;;;;;;;;;;5059092;28;20029;-89
2021/12/12 11:21:07;;;;;;;10.00;7.00;;;;;;;;;;5059226;28;20107;-88
2021/12/12 11:23:32;;;;;;;10.02;6.82;;;;;;;;;;5059668;28;20052;-88
2021/12/12 11:25:58;;;;;;;11.82;6.65;;;;;;;;;;5073235;28;20024;-89
2021/12/12 11:28:23;;;;;;;12.50;7.60;;;;;;;;;;5045193;28;20036;-88
2021/12/12 11:30:48;;;;;;;10.70;7.13;;;;;;;;;;5060683;28;20032;-88
2021/12/12 11:33:14;;;;;;;9.98;6.53;;;;;;;;;;5061360;28;20089;-88
2021/12/12 11:35:39;;;;;;;10.65;6.78;;;;;;;;;;5044125;28;20065;-88
2021/12/12 11:38:04;;;;;;;9.40;6.18;;;;;;;;;;5060129;28;20032;-88
2021/12/12 11:40:30;;;;;;;10.43;6.10;;;;;;;;;;5080844;28;20422;-87
2021/12/12 11:42:55;;;;;;;9.38;5.80;;;;;;;;;;5042737;28;20027;-89
2021/12/12 11:45:20;;;;;;;7.70;5.25;;;;;;;;;;5058684;28;20036;-88
2021/12/12 11:47:45;;;;;;;8.75;5.78;;;;;;;;;;5042626;28;20472;-89
2021/12/12 11:50:11;;;;;;;8.45;5.80;;;;;;;;;;5060109;28;20029;-89
2021/12/12 11:52:36;;;;;;;9.98;5.13;;;;;;;;;;5063203;28;20047;-88
2021/12/12 11:55:02;;;;;;;8.93;5.05;;;;;;;;;;5044730;28;20070;-88
2021/12/12 11:57:27;;;;;;;7.57;4.30;;;;;;;;;;5060365;28;20032;-89
2021/12/12 11:59:53;;;;;;;7.15;4.38;;;;;;;;;;5043785;28;20040;-89
2021/12/12 12:02:19;;;;;;;8.25;5.03;;;;;;;;;;5059461;28;20384;-90
2021/12/12 12:04:44;;;;;;;8.07;5.32;;;;;;;;;;5042717;28;20037;-90
2021/12/12 12:07:09;;;;;;;13.23;5.53;;;;;;;;;;5042999;28;20538;-88
2021/12/12 12:09:35;;;;;;;7.55;5.15;;;;;;;;;;5059155;28;20040;-88
2021/12/12 12:12:01;;;;;;;7.70;4.93;;;;;;;;;;5042123;28;20028;-88
2021/12/12 12:14:26;;;;;;;8.95;5.75;;;;;;;;;;5076925;28;20036;-89
2021/12/12 12:16:52;;;;;;;8.38;5.72;;;;;;;;;;5042163;28;20035;-89
2021/12/12 12:19:17;;;;;;;7.97;5.07;;;;;;;;;;5079252;28;20377;-89
2021/12/12 12:21:43;;;;;;;8.25;5.65;;;;;;;;;;5042838;28;20066;-89
2021/12/12 12:26:51;;;;;;;8.85;5.18;;;;;;;;;;5076350;28;20028;-89
2021/12/12 12:29:17;;;;;;;7.65;5.00;;;;;;;;;;5076585;28;20120;-89
2021/12/12 12:31:43;;;;;;;5.65;4.03;;;;;;;;;;5059175;28;20071;-88
2021/12/12 12:34:08;;;;;;;7.32;4.47;;;;;;;;;;5049275;28;20147;-89
2021/12/12 12:36:33;;;;;;;7.63;4.93;;;;;;;;;;5064775;28;20036;-89
2021/12/12 12:38:59;;;;;;;8.30;5.40;;;;;;;;;;5058810;28;20039;-89
2021/12/12 12:41:24;;;;;;;8.85;5.70;;;;;;;;;;5075602;28;20028;-88
2021/12/12 12:43:50;;;;;;;8.70;5.57;;;;;;;;;;5059469;28;20127;-89
2021/12/12 12:46:15;;;;;;;8.20;4.88;;;;;;;;;;5059436;28;20043;-88
2021/12/12 12:48:40;;;;;;;6.55;4.30;;;;;;;;;;5075982;28;20111;-90
2021/12/12 12:51:06;;;;;;;8.07;5.13;;;;;;;;;;5043029;28;20115;-88
2021/12/12 12:53:31;;;;;;;8.05;5.53;;;;;;;;;;5078593;28;20115;-88
2021/12/12 12:55:56;;;;;;;8.40;5.72;;;;;;;;;;5079224;28;20047;-88
2021/12/12 12:58:22;;;;;;;10.15;6.13;;;;;;;;;;5043280;28;20035;-87
2021/12/12 13:00:47;;;;;;;10.73;6.70;;;;;;;;;;5062944;28;20487;-87
2021/12/12 13:03:13;;;;;;;10.80;5.53;;;;;;;;;;5044954;28;20028;-88
2021/12/12 13:05:38;;;;;;;8.52;5.30;;;;;;;;;;5046682;28;20040;-88
2021/12/12 13:08:03;;;;;;;7.72;5.13;;;;;;;;;;5066963;28;20036;-87
2021/12/12 13:10:29;;;;;;;9.85;5.85;;;;;;;;;;5061719;28;20052;-87
2021/12/12 13:12:54;;;;;;;7.00;4.63;;;;;;;;;;5045732;28;20036;-87
2021/12/12 13:15:19;;;;;;;13.07;7.78;;;;;;;;;;5062909;28;20058;-87
2021/12/12 13:17:45;;;;;;;8.00;5.03;;;;;;;;;;5063856;28;20043;-86
2021/12/12 13:20:11;;;;;;;8.05;4.93;;;;;;;;;;5080778;28;20098;-87
2021/12/12 13:22:37;;;;;;;7.75;5.07;;;;;;;;;;5046186;28;20028;-86
2021/12/12 13:25:06;;;;;;;9.02;5.35;;;;;;;;;;5062210;28;20039;-86
2021/12/12 13:27:39;;;;;;;19.42;10.43;;;;;;;;;;5056666;28;20041;-88
2021/12/12 13:30:05;;;;;;;7.18;4.60;;;;;;;;;;5058652;28;20516;-87
2021/12/12 13:32:35;;;;;;;7.43;4.90;;;;;;;;;;5059887;28;20055;-87
2021/12/12 13:35:01;;;;;;;8.98;5.30;;;;;;;;;;5067386;28;20383;-87
2021/12/12 13:37:27;;;;;;;15.90;6.25;;;;;;;;;;5054814;28;20036;-87
2021/12/12 13:39:52;;;;;;;9.60;5.07;;;;;;;;;;5059894;28;20048;-86
2021/12/12 13:42:17;;;;;;;9.07;5.60;;;;;;;;;;5062422;28;20032;-87
2021/12/12 13:44:43;;;;;;;8.23;5.40;;;;;;;;;;5069920;28;20467;-87
2021/12/12 13:47:08;;;;;;;9.02;5.45;;;;;;;;;;5059456;28;20033;-88
2021/12/12 13:49:33;;;;;;;9.93;6.20;;;;;;;;;;5063008;28;20473;-87
2021/12/12 13:51:59;;;;;;;8.70;5.85;;;;;;;;;;5054879;28;20619;-89
2021/12/12 13:54:24;;;;;;;8.82;5.57;;;;;;;;;;5061955;28;20410;-87
2021/12/12 13:56:49;;;;;;;9.52;6.00;;;;;;;;;;5043728;28;20040;-86
2021/12/12 13:59:15;;;;;;;11.88;6.63;;;;;;;;;;5061810;28;20057;-86
2021/12/12 14:01:40;;;;;;;12.13;7.13;;;;;;;;;;5062116;28;20043;-86
2021/12/12 14:04:06;;;;;;;10.90;6.38;;;;;;;;;;5061788;28;20094;-87
2021/12/12 14:06:32;;;;;;;9.48;5.53;;;;;;;;;;5060652;28;20496;-87
2021/12/12 14:09:01;;;;;;;9.98;6.10;;;;;;;;;;5043179;28;20045;-87
2021/12/12 14:11:26;;;;;;;10.20;5.60;;;;;;;;;;5059851;28;20029;-86
2021/12/12 14:13:52;;;;;;;9.75;5.30;;;;;;;;;;5059121;28;20045;-86
2021/12/12 14:16:17;;;;;;;8.63;5.28;;;;;;;;;;5058394;28;20045;-86
2021/12/12 14:18:42;;;;;;;8.55;5.38;;;;;;;;;;5042637;28;20029;-87
2021/12/12 14:21:09;;;;;;;8.07;5.40;;;;;;;;;;5060517;28;20035;-87
2021/12/12 14:23:34;;;;;;;14.73;5.07;;;;;;;;;;5060596;28;20029;-88
2021/12/12 14:25:59;;;;;;;11.38;4.60;;;;;;;;;;5063590;28;20082;-88
2021/12/12 14:28:25;;;;;;;8.95;4.95;;;;;;;;;;5082596;28;20121;-87
2021/12/12 14:30:50;;;;;;;7.55;4.75;;;;;;;;;;5064733;28;20120;-87
2021/12/12 14:33:15;;;;;;;7.25;4.50;;;;;;;;;;5082534;28;20043;-87
2021/12/12 14:35:41;;;;;;;8.00;3.92;;;;;;;;;;5082253;28;20031;-87
2021/12/12 14:38:06;;;;;;;6.22;3.80;;;;;;;;;;5063088;28;20436;-86
2021/12/12 14:40:31;;;;;;;7.05;4.07;;;;;;;;;;5082856;28;20196;-87
2021/12/12 14:42:57;;;;;;;6.78;4.38;;;;;;;;;;5081645;28;20039;-86
2021/12/12 14:45:22;;;;;;;6.28;4.03;;;;;;;;;;5081045;28;20027;-85
2021/12/12 14:47:48;;;;;;;7.32;4.50;;;;;;;;;;5063471;28;20058;-85
2021/12/12 14:50:13;;;;;;;7.47;4.93;;;;;;;;;;5063333;28;20464;-85
2021/12/12 14:52:38;;;;;;;7.20;4.55;;;;;;;;;;5080181;28;20079;-85